Time;durP1;ratioP1;P1;durP2;ratioP2;P2;SDS_P1;SDS_P2;PMS_P1;PMS_P2;Temp;Humidity;BMP_temperature;BMP_pressure;BME280_temperature;BME280_humidity;BME280_pressure;Samples;Min_cycle;Max_cycle;Signal;HPM_P1;HPM_P2
2023/12/30 00:01:57;;;;;;;12.73;1.57;;;;;;;;;;4993524;28;20113;-91
2023/12/30 00:04:22;;;;;;;11.97;1.13;;;;;;;;;;4994962;28;20041;-91
2023/12/30 00:06:47;;;;;;;17.73;1.57;;;;;;;;;;4994402;28;20034;-91
2023/12/30 00:09:13;;;;;;;16.33;1.83;;;;;;;;;;4977505;28;20500;-91
2023/12/30 00:11:39;;;;;;;13.97;1.40;;;;;;;;;;4976651;28;20452;-90
2023/12/30 00:14:04;;;;;;;18.02;1.50;;;;;;;;;;4995235;28;20034;-91
2023/12/30 00:16:30;;;;;;;19.77;2.10;;;;;;;;;;4988473;28;20023;-91
2023/12/30 00:18:56;;;;;;;14.37;1.30;;;;;;;;;;4998901;28;20102;-91
2023/12/30 00:21:21;;;;;;;14.45;1.10;;;;;;;;;;4995923;28;20473;-91
2023/12/30 00:23:47;;;;;;;18.27;2.33;;;;;;;;;;4994334;28;20053;-91
2023/12/30 00:26:22;;;;;;;7.20;0.93;;;;;;;;;;4994483;28;20050;-90
2023/12/30 00:28:48;;;;;;;11.05;1.50;;;;;;;;;;4963490;28;20538;-90
2023/12/30 00:31:26;;;;;;;12.57;1.38;;;;;;;;;;4972988;28;20018;-92
2023/12/30 00:33:52;;;;;;;11.63;1.20;;;;;;;;;;4957641;28;20081;-90
2023/12/30 00:36:18;;;;;;;14.95;1.50;;;;;;;;;;4974510;28;20019;-91
2023/12/30 00:38:43;;;;;;;14.33;0.90;;;;;;;;;;4975069;28;20383;-91
2023/12/30 00:41:08;;;;;;;12.37;1.23;;;;;;;;;;4974591;28;20029;-92
2023/12/30 00:43:34;;;;;;;11.27;0.90;;;;;;;;;;4991454;28;20034;-90
2023/12/30 00:46:00;;;;;;;10.85;1.45;;;;;;;;;;4976664;28;20029;-91
2023/12/30 00:48:25;;;;;;;16.73;2.30;;;;;;;;;;4995027;28;20026;-90
2023/12/30 00:50:50;;;;;;;13.23;1.40;;;;;;;;;;4994702;28;20018;-91
2023/12/30 00:53:17;;;;;;;17.87;1.73;;;;;;;;;;4994393;28;20034;-90
2023/12/30 00:55:42;;;;;;;9.82;1.15;;;;;;;;;;4993991;28;20069;-90
2023/12/30 00:58:09;;;;;;;10.37;1.60;;;;;;;;;;4995508;28;20021;-90
2023/12/30 01:00:34;;;;;;;13.93;1.40;;;;;;;;;;4995871;28;20018;-90
2023/12/30 01:02:59;;;;;;;13.50;1.17;;;;;;;;;;4979596;28;20033;-90
2023/12/30 01:05:24;;;;;;;16.70;1.60;;;;;;;;;;4998200;28;20018;-90
2023/12/30 01:07:50;;;;;;;13.30;1.10;;;;;;;;;;5001544;28;20168;-90
2023/12/30 01:10:16;;;;;;;9.17;1.00;;;;;;;;;;4995550;28;20065;-93
2023/12/30 01:12:43;;;;;;;20.27;1.42;;;;;;;;;;4995338;28;20026;-91
2023/12/30 01:15:09;;;;;;;14.57;1.37;;;;;;;;;;4977576;28;20129;-92
2023/12/30 01:17:36;;;;;;;9.05;1.20;;;;;;;;;;4996230;28;20049;-92
2023/12/30 01:20:03;;;;;;;11.77;1.05;;;;;;;;;;4996530;28;20022;-91
2023/12/30 01:22:28;;;;;;;9.80;1.10;;;;;;;;;;4983580;28;20042;-90
2023/12/30 01:24:53;;;;;;;11.50;1.10;;;;;;;;;;4995919;28;20132;-90
2023/12/30 01:27:18;;;;;;;11.03;1.40;;;;;;;;;;4999344;28;20014;-91
2023/12/30 01:29:43;;;;;;;13.07;1.50;;;;;;;;;;4996898;28;20049;-91
2023/12/30 01:32:13;;;;;;;10.50;1.90;;;;;;;;;;4995104;28;20093;-91
2023/12/30 01:34:38;;;;;;;15.73;1.70;;;;;;;;;;5000701;28;20073;-91
2023/12/30 01:37:03;;;;;;;11.07;1.37;;;;;;;;;;5012691;28;20022;-90
2023/12/30 01:39:29;;;;;;;10.10;1.57;;;;;;;;;;4995155;28;20007;-90
2023/12/30 01:41:54;;;;;;;13.13;2.03;;;;;;;;;;5012248;28;20081;-91
2023/12/30 01:44:20;;;;;;;15.77;1.93;;;;;;;;;;5011974;28;20049;-90
2023/12/30 01:46:48;;;;;;;15.80;1.85;;;;;;;;;;5006986;28;20019;-90
2023/12/30 01:49:16;;;;;;;15.48;1.70;;;;;;;;;;4988116;28;20086;-91
2023/12/30 01:51:42;;;;;;;11.33;1.70;;;;;;;;;;5008265;28;20019;-90
2023/12/30 01:54:08;;;;;;;17.47;2.17;;;;;;;;;;5009012;28;20324;-90
2023/12/30 01:56:34;;;;;;;17.13;1.57;;;;;;;;;;5010496;28;20033;-91
2023/12/30 01:58:59;;;;;;;17.83;1.67;;;;;;;;;;5009242;28;20274;-91
2023/12/30 02:01:28;;;;;;;14.33;1.67;;;;;;;;;;5010574;28;20029;-91
2023/12/30 02:03:53;;;;;;;14.30;1.58;;;;;;;;;;4992198;28;20026;-92
2023/12/30 02:06:20;;;;;;;20.30;2.30;;;;;;;;;;5011359;28;20039;-91
2023/12/30 02:08:47;;;;;;;12.45;1.25;;;;;;;;;;5007513;28;20022;-91
2023/12/30 02:11:12;;;;;;;14.68;2.30;;;;;;;;;;4991987;28;20031;-91
2023/12/30 02:13:44;;;;;;;12.70;1.57;;;;;;;;;;4993243;28;20033;-91
2023/12/30 02:16:10;;;;;;;10.95;1.55;;;;;;;;;;4993025;28;20039;-90
2023/12/30 02:18:36;;;;;;;17.88;1.70;;;;;;;;;;4971450;28;20030;-91
2023/12/30 02:21:02;;;;;;;15.97;1.67;;;;;;;;;;4997308;28;20010;-91
2023/12/30 02:23:27;;;;;;;14.93;1.50;;;;;;;;;;5001970;28;20202;-91
2023/12/30 02:25:52;;;;;;;10.47;1.30;;;;;;;;;;5007125;28;20289;-92
2023/12/30 02:28:19;;;;;;;12.97;1.63;;;;;;;;;;4995126;28;20014;-91
2023/12/30 02:30:44;;;;;;;21.23;2.60;;;;;;;;;;5006210;28;20007;-92
2023/12/30 02:33:09;;;;;;;17.80;1.73;;;;;;;;;;4982234;28;20019;-92
2023/12/30 02:35:34;;;;;;;16.70;1.63;;;;;;;;;;5009557;28;20346;-93
2023/12/30 02:38:00;;;;;;;21.23;2.13;;;;;;;;;;4993587;28;20041;-92
2023/12/30 02:40:25;;;;;;;13.07;2.17;;;;;;;;;;4993415;28;20003;-92
2023/12/30 02:42:51;;;;;;;10.20;1.57;;;;;;;;;;4989309;28;20029;-92
2023/12/30 02:45:16;;;;;;;7.03;1.93;;;;;;;;;;5012356;28;20288;-92
2023/12/30 02:47:41;;;;;;;9.53;2.30;;;;;;;;;;5012414;28;20018;-92
2023/12/30 02:50:07;;;;;;;10.03;2.47;;;;;;;;;;5012153;28;20029;-93
2023/12/30 02:52:32;;;;;;;8.50;3.07;;;;;;;;;;5013842;28;20022;-92
2023/12/30 02:54:57;;;;;;;10.53;3.60;;;;;;;;;;5016818;28;20010;-92
2023/12/30 02:57:24;;;;;;;15.75;3.85;;;;;;;;;;5008896;28;20041;-92
2023/12/30 02:59:50;;;;;;;16.27;2.70;;;;;;;;;;5004511;28;20042;-93
2023/12/30 03:02:15;;;;;;;18.38;2.88;;;;;;;;;;5001048;28;20022;-92
2023/12/30 03:04:40;;;;;;;14.97;2.50;;;;;;;;;;5002780;28;20169;-92
2023/12/30 03:07:07;;;;;;;16.40;2.53;;;;;;;;;;5012358;28;20014;-93
2023/12/30 03:09:32;;;;;;;14.57;2.30;;;;;;;;;;5006003;28;20018;-92
2023/12/30 03:11:57;;;;;;;14.50;1.90;;;;;;;;;;5000591;28;20269;-92
2023/12/30 03:14:22;;;;;;;12.70;1.77;;;;;;;;;;4999360;28;20446;-92
2023/12/30 03:16:48;;;;;;;15.53;1.70;;;;;;;;;;4999907;28;20018;-91
2023/12/30 03:19:13;;;;;;;12.37;1.63;;;;;;;;;;4999408;28;20407;-91
2023/12/30 03:21:38;;;;;;;18.10;1.43;;;;;;;;;;4999360;28;20018;-91
2023/12/30 03:24:03;;;;;;;17.97;1.90;;;;;;;;;;4998775;28;20031;-91
2023/12/30 03:26:29;;;;;;;14.50;1.67;;;;;;;;;;4997625;28;20494;-92
2023/12/30 03:28:54;;;;;;;16.60;1.40;;;;;;;;;;4984445;28;20052;-91
2023/12/30 03:31:29;;;;;;;16.23;1.70;;;;;;;;;;4987245;28;20018;-91
2023/12/30 03:33:57;;;;;;;20.13;2.13;;;;;;;;;;4984670;28;20090;-91
2023/12/30 03:36:22;;;;;;;20.20;1.73;;;;;;;;;;5000241;28;20010;-92
2023/12/30 03:38:50;;;;;;;18.63;1.47;;;;;;;;;;4976553;28;20019;-92
2023/12/30 03:41:16;;;;;;;17.63;1.40;;;;;;;;;;4978886;28;20026;-91
2023/12/30 03:43:41;;;;;;;21.37;2.17;;;;;;;;;;4975744;28;20035;-91
2023/12/30 03:46:06;;;;;;;18.53;1.77;;;;;;;;;;4978087;28;20089;-91
2023/12/30 03:48:32;;;;;;;21.20;1.80;;;;;;;;;;4979117;28;20031;-91
2023/12/30 03:50:58;;;;;;;12.80;1.60;;;;;;;;;;4976848;28;20055;-92
2023/12/30 03:53:23;;;;;;;20.60;1.77;;;;;;;;;;4978504;28;20027;-91
2023/12/30 03:55:48;;;;;;;19.03;1.80;;;;;;;;;;4992492;28;20084;-91
2023/12/30 03:58:13;;;;;;;18.08;1.92;;;;;;;;;;4996414;28;20399;-92
2023/12/30 04:00:39;;;;;;;15.13;1.47;;;;;;;;;;4996174;28;20093;-92
2023/12/30 04:03:04;;;;;;;16.53;1.63;;;;;;;;;;4996407;28;20080;-92
2023/12/30 04:05:29;;;;;;;17.43;1.67;;;;;;;;;;4995935;28;20483;-91
2023/12/30 04:07:55;;;;;;;15.37;1.37;;;;;;;;;;4997903;28;20045;-91
2023/12/30 04:10:21;;;;;;;15.43;1.60;;;;;;;;;;4994677;28;20109;-92
2023/12/30 04:12:46;;;;;;;16.57;1.33;;;;;;;;;;4964303;28;20514;-91
2023/12/30 04:15:11;;;;;;;14.30;1.30;;;;;;;;;;4985613;28;20368;-91
2023/12/30 04:17:37;;;;;;;21.97;1.50;;;;;;;;;;4973448;28;20018;-92
2023/12/30 04:20:02;;;;;;;22.17;1.60;;;;;;;;;;4993175;28;20022;-93
2023/12/30 04:22:28;;;;;;;20.00;1.63;;;;;;;;;;4993748;28;20011;-92
2023/12/30 04:24:53;;;;;;;15.73;1.30;;;;;;;;;;4992617;28;20062;-92
2023/12/30 04:27:19;;;;;;;18.75;1.40;;;;;;;;;;5012453;28;20022;-92
2023/12/30 04:29:44;;;;;;;16.00;1.33;;;;;;;;;;5011880;28;20030;-92
2023/12/30 04:32:09;;;;;;;18.30;1.30;;;;;;;;;;5011837;28;20541;-92
2023/12/30 04:34:35;;;;;;;20.67;1.63;;;;;;;;;;5012849;28;19999;-92
2023/12/30 04:37:00;;;;;;;20.10;2.13;;;;;;;;;;5009960;28;20116;-92
2023/12/30 04:39:27;;;;;;;15.25;1.40;;;;;;;;;;4998029;28;20534;-92
2023/12/30 04:41:52;;;;;;;24.30;1.77;;;;;;;;;;5011363;28;20076;-93
2023/12/30 04:44:18;;;;;;;16.93;1.50;;;;;;;;;;5011463;28;20459;-92
2023/12/30 04:46:43;;;;;;;17.90;1.53;;;;;;;;;;5011810;28;20026;-92
2023/12/30 04:49:08;;;;;;;9.10;1.10;;;;;;;;;;5012115;28;20038;-91
2023/12/30 04:51:33;;;;;;;16.97;1.53;;;;;;;;;;5010608;28;20053;-93
2023/12/30 04:54:00;;;;;;;11.40;1.17;;;;;;;;;;5009807;28;20064;-91
2023/12/30 04:56:25;;;;;;;19.77;1.75;;;;;;;;;;5010462;28;20022;-92
2023/12/30 04:58:51;;;;;;;20.17;1.53;;;;;;;;;;5010338;28;20022;-93
2023/12/30 05:01:23;;;;;;;17.20;1.50;;;;;;;;;;5010291;28;20020;-91
2023/12/30 05:03:50;;;;;;;17.40;1.50;;;;;;;;;;4987514;28;20188;-91
2023/12/30 05:06:21;;;;;;;14.83;1.20;;;;;;;;;;5011495;28;20280;-92
2023/12/30 05:08:50;;;;;;;14.55;1.30;;;;;;;;;;4986090;28;20049;-92
2023/12/30 05:11:15;;;;;;;14.00;1.45;;;;;;;;;;4998488;28;20015;-92
2023/12/30 05:13:42;;;;;;;18.77;1.43;;;;;;;;;;4997968;28;20399;-92
2023/12/30 05:16:07;;;;;;;21.00;1.73;;;;;;;;;;4981537;28;20033;-92
2023/12/30 05:18:32;;;;;;;19.10;1.57;;;;;;;;;;4997038;28;20018;-92
2023/12/30 05:20:57;;;;;;;16.67;1.40;;;;;;;;;;4985960;28;20022;-92
2023/12/30 05:23:23;;;;;;;17.93;1.50;;;;;;;;;;4980366;28;20029;-92
2023/12/30 05:25:48;;;;;;;22.67;1.90;;;;;;;;;;4983931;28;20030;-92
2023/12/30 05:28:13;;;;;;;24.00;2.17;;;;;;;;;;4979931;28;20093;-92
2023/12/30 05:30:38;;;;;;;19.30;1.73;;;;;;;;;;4979491;28;20019;-92
2023/12/30 05:33:04;;;;;;;27.38;2.08;;;;;;;;;;4981184;28;20019;-92
2023/12/30 05:35:30;;;;;;;26.57;2.00;;;;;;;;;;4984335;28;20025;-92
2023/12/30 05:37:55;;;;;;;17.67;1.63;;;;;;;;;;4999773;28;20474;-92
2023/12/30 05:40:21;;;;;;;23.80;2.40;;;;;;;;;;5000150;28;20053;-92
2023/12/30 05:42:46;;;;;;;19.20;1.80;;;;;;;;;;4997332;28;20430;-92
2023/12/30 05:45:11;;;;;;;23.37;1.90;;;;;;;;;;5006474;28;20061;-92
2023/12/30 05:47:36;;;;;;;17.53;1.60;;;;;;;;;;5009324;28;20022;-93
2023/12/30 05:50:02;;;;;;;15.33;1.67;;;;;;;;;;5011456;28;20046;-93
2023/12/30 05:52:27;;;;;;;33.30;1.90;;;;;;;;;;5010004;28;20289;-92
2023/12/30 05:54:52;;;;;;;19.03;1.80;;;;;;;;;;5010450;28;20348;-91
2023/12/30 05:57:18;;;;;;;19.40;1.50;;;;;;;;;;5009181;28;20049;-92
2023/12/30 05:59:43;;;;;;;19.33;1.77;;;;;;;;;;5004811;28;20018;-91
2023/12/30 06:02:08;;;;;;;16.43;2.17;;;;;;;;;;5005933;28;20069;-91
2023/12/30 06:04:39;;;;;;;24.52;1.63;;;;;;;;;;4991032;28;20506;-91
2023/12/30 06:07:04;;;;;;;17.60;1.90;;;;;;;;;;5009429;28;20026;-91
2023/12/30 06:09:30;;;;;;;23.33;1.93;;;;;;;;;;4994926;28;20284;-91
2023/12/30 06:11:55;;;;;;;16.03;1.60;;;;;;;;;;5011468;28;20015;-92
2023/12/30 06:14:21;;;;;;;27.50;1.60;;;;;;;;;;5011630;28;20288;-91
2023/12/30 06:16:46;;;;;;;24.53;2.33;;;;;;;;;;5012318;28;20373;-92
2023/12/30 06:19:13;;;;;;;21.30;2.53;;;;;;;;;;4995236;28;20026;-91
2023/12/30 06:21:38;;;;;;;22.40;2.15;;;;;;;;;;5011341;28;20019;-93
2023/12/30 06:24:03;;;;;;;21.17;2.07;;;;;;;;;;5011736;28;20037;-94
2023/12/30 06:26:28;;;;;;;24.57;1.97;;;;;;;;;;5012234;28;20029;-92
2023/12/30 06:28:54;;;;;;;24.80;2.00;;;;;;;;;;5012741;28;20006;-92
2023/12/30 06:31:19;;;;;;;23.20;1.90;;;;;;;;;;5012321;28;20045;-91
2023/12/30 06:33:44;;;;;;;18.37;1.77;;;;;;;;;;5011213;28;20019;-91
2023/12/30 06:36:11;;;;;;;15.37;1.43;;;;;;;;;;5010691;28;20090;-92
2023/12/30 06:38:36;;;;;;;19.95;1.83;;;;;;;;;;5013212;28;20014;-93
2023/12/30 06:41:05;;;;;;;19.23;2.03;;;;;;;;;;5013627;28;20019;-93
2023/12/30 06:43:32;;;;;;;22.52;2.00;;;;;;;;;;5010132;28;20026;-93
2023/12/30 06:45:57;;;;;;;21.48;2.42;;;;;;;;;;5007948;28;20022;-94
2023/12/30 06:48:23;;;;;;;20.47;1.90;;;;;;;;;;5013430;28;20089;-92
2023/12/30 06:50:48;;;;;;;13.77;1.23;;;;;;;;;;5009606;28;20018;-94
2023/12/30 06:53:13;;;;;;;24.37;1.67;;;;;;;;;;5011233;28;20034;-93
2023/12/30 06:55:38;;;;;;;22.20;1.73;;;;;;;;;;5009440;28;20014;-93
2023/12/30 06:58:03;;;;;;;27.83;1.83;;;;;;;;;;5007364;28;20026;-94
2023/12/30 07:00:30;;;;;;;19.60;1.70;;;;;;;;;;5000444;28;20018;-96
2023/12/30 07:02:57;;;;;;;20.42;1.50;;;;;;;;;;5001341;28;20018;-94
2023/12/30 07:05:22;;;;;;;16.75;1.70;;;;;;;;;;5014108;28;20028;-94
2023/12/30 07:07:47;;;;;;;17.27;1.50;;;;;;;;;;5000622;28;20113;-95
2023/12/30 07:10:12;;;;;;;23.13;1.90;;;;;;;;;;5000827;28;20018;-94
2023/12/30 07:12:38;;;;;;;18.80;1.50;;;;;;;;;;5001258;28;20545;-96
2023/12/30 07:15:04;;;;;;;16.37;1.50;;;;;;;;;;5001391;28;20034;-96
2023/12/30 07:17:29;;;;;;;18.63;1.80;;;;;;;;;;5004540;28;20018;-96
2023/12/30 07:19:55;;;;;;;13.60;1.40;;;;;;;;;;5007798;28;20026;-95
2023/12/30 07:22:22;;;;;;;23.20;1.63;;;;;;;;;;5005661;28;20322;-90
2023/12/30 07:24:47;;;;;;;20.50;1.60;;;;;;;;;;4976947;28;20122;-90
2023/12/30 07:27:14;;;;;;;17.93;1.90;;;;;;;;;;4996724;28;20045;-91
2023/12/30 07:29:39;;;;;;;22.40;1.55;;;;;;;;;;4978221;28;20077;-91
2023/12/30 07:32:05;;;;;;;18.73;1.67;;;;;;;;;;4995460;28;20326;-91
2023/12/30 07:34:30;;;;;;;20.97;1.83;;;;;;;;;;4994974;28;20382;-90
2023/12/30 07:36:56;;;;;;;14.37;1.60;;;;;;;;;;4987138;28;20022;-91
2023/12/30 07:39:21;;;;;;;21.40;1.73;;;;;;;;;;4990977;28;20030;-92
2023/12/30 07:41:47;;;;;;;18.13;1.57;;;;;;;;;;4974989;28;20155;-91
2023/12/30 07:44:13;;;;;;;21.57;1.90;;;;;;;;;;4957772;28;20069;-91
2023/12/30 07:46:38;;;;;;;10.68;1.10;;;;;;;;;;4960257;28;20509;-94
2023/12/30 07:49:03;;;;;;;15.43;1.57;;;;;;;;;;4992712;28;20033;-93
2023/12/30 07:51:29;;;;;;;19.13;2.23;;;;;;;;;;4980716;28;20056;-94
2023/12/30 07:53:54;;;;;;;17.10;1.87;;;;;;;;;;4997626;28;20022;-93
2023/12/30 07:56:20;;;;;;;18.70;1.10;;;;;;;;;;4981598;28;20382;-94
2023/12/30 07:58:45;;;;;;;19.93;2.30;;;;;;;;;;4999485;28;20030;-93
2023/12/30 08:01:11;;;;;;;18.07;1.97;;;;;;;;;;4996210;28;20060;-93
2023/12/30 08:03:36;;;;;;;24.40;1.97;;;;;;;;;;4977557;28;20045;-93
2023/12/30 08:06:01;;;;;;;24.10;1.77;;;;;;;;;;4996714;28;20689;-90
2023/12/30 08:08:27;;;;;;;21.27;1.90;;;;;;;;;;4990842;28;20022;-94
2023/12/30 08:10:52;;;;;;;18.23;1.90;;;;;;;;;;5001931;28;20033;-93
2023/12/30 08:13:18;;;;;;;18.97;1.77;;;;;;;;;;5003742;28;20659;-91
2023/12/30 08:15:43;;;;;;;20.47;1.80;;;;;;;;;;4983341;28;20022;-92
2023/12/30 08:18:08;;;;;;;24.13;2.27;;;;;;;;;;4998285;28;20454;-92
2023/12/30 08:20:33;;;;;;;20.57;2.10;;;;;;;;;;4997409;28;20410;-92
2023/12/30 08:22:59;;;;;;;17.30;2.27;;;;;;;;;;4997142;28;20451;-93
2023/12/30 08:25:24;;;;;;;24.83;1.90;;;;;;;;;;4996064;28;20096;-92
2023/12/30 08:27:50;;;;;;;24.03;2.67;;;;;;;;;;4979853;28;20470;-93
2023/12/30 08:30:15;;;;;;;26.13;2.03;;;;;;;;;;4995145;28;20034;-92
2023/12/30 08:32:41;;;;;;;19.03;2.57;;;;;;;;;;4994204;28;20532;-94
2023/12/30 08:35:07;;;;;;;14.60;1.90;;;;;;;;;;4993796;28;20030;-93
2023/12/30 08:37:33;;;;;;;20.98;2.17;;;;;;;;;;4994139;28;20442;-93
2023/12/30 08:39:58;;;;;;;31.10;2.93;;;;;;;;;;4994272;28;20142;-93
2023/12/30 08:42:23;;;;;;;19.93;2.13;;;;;;;;;;4994626;28;20101;-93
2023/12/30 08:44:48;;;;;;;21.93;2.00;;;;;;;;;;4992345;28;20065;-91
2023/12/30 08:47:15;;;;;;;14.97;2.50;;;;;;;;;;4993542;28;20023;-91
2023/12/30 08:49:40;;;;;;;18.20;2.20;;;;;;;;;;4992029;28;20037;-93
2023/12/30 08:52:05;;;;;;;23.65;2.65;;;;;;;;;;4992866;28;20018;-92
2023/12/30 08:54:31;;;;;;;18.37;2.93;;;;;;;;;;4992249;28;20019;-91
2023/12/30 08:56:56;;;;;;;17.47;2.67;;;;;;;;;;5013226;28;20028;-92
2023/12/30 08:59:23;;;;;;;24.23;2.30;;;;;;;;;;5014166;28;20097;-91
2023/12/30 09:01:48;;;;;;;18.70;2.47;;;;;;;;;;5005317;28;20109;-91
2023/12/30 09:04:14;;;;;;;19.67;2.33;;;;;;;;;;4998680;28;20027;-90
2023/12/30 09:06:39;;;;;;;21.67;2.45;;;;;;;;;;4992337;28;20021;-91
2023/12/30 09:09:04;;;;;;;28.17;3.20;;;;;;;;;;4992797;28;20493;-90
2023/12/30 09:11:29;;;;;;;23.10;2.50;;;;;;;;;;4994007;28;20026;-89
2023/12/30 09:13:55;;;;;;;15.83;2.27;;;;;;;;;;4991049;28;20037;-89
2023/12/30 09:16:20;;;;;;;22.27;2.87;;;;;;;;;;4990872;28;20026;-89
2023/12/30 09:18:45;;;;;;;19.87;2.23;;;;;;;;;;4990870;28;20022;-89
2023/12/30 09:21:11;;;;;;;21.97;2.27;;;;;;;;;;4989653;28;20398;-89
2023/12/30 09:23:37;;;;;;;19.20;2.30;;;;;;;;;;4991006;28;20483;-88
2023/12/30 09:26:03;;;;;;;14.50;2.58;;;;;;;;;;4989283;28;20018;-90
2023/12/30 09:28:28;;;;;;;17.50;2.10;;;;;;;;;;4991422;28;20034;-89
2023/12/30 09:30:53;;;;;;;25.30;3.07;;;;;;;;;;4989949;28;20541;-89
2023/12/30 09:33:18;;;;;;;28.30;2.63;;;;;;;;;;4996059;28;20033;-91
2023/12/30 09:35:43;;;;;;;22.80;2.87;;;;;;;;;;5011008;28;20378;-90
2023/12/30 09:38:09;;;;;;;24.67;3.03;;;;;;;;;;5011558;28;20390;-90
2023/12/30 09:40:34;;;;;;;19.93;2.50;;;;;;;;;;4994153;28;20026;-90
2023/12/30 09:43:03;;;;;;;21.25;3.22;;;;;;;;;;5001397;28;20049;-91
2023/12/30 09:45:29;;;;;;;20.15;2.70;;;;;;;;;;5002509;28;20018;-90
2023/12/30 09:47:55;;;;;;;14.83;2.33;;;;;;;;;;5000046;28;20037;-90
2023/12/30 09:50:21;;;;;;;15.77;2.55;;;;;;;;;;5002266;28;20064;-90
2023/12/30 09:52:46;;;;;;;28.25;3.65;;;;;;;;;;4983528;28;20018;-91
2023/12/30 09:55:12;;;;;;;20.57;3.23;;;;;;;;;;4991724;28;20022;-91
2023/12/30 09:57:37;;;;;;;21.83;3.30;;;;;;;;;;4973836;28;20026;-92
2023/12/30 10:00:05;;;;;;;16.90;3.43;;;;;;;;;;4990950;28;20101;-92
2023/12/30 10:02:31;;;;;;;17.13;4.03;;;;;;;;;;4994843;28;20379;-92
2023/12/30 10:04:57;;;;;;;25.75;3.95;;;;;;;;;;4977442;28;20040;-92
2023/12/30 10:07:22;;;;;;;18.23;3.67;;;;;;;;;;4995261;28;20498;-92
2023/12/30 10:09:50;;;;;;;21.97;3.97;;;;;;;;;;4995022;28;20277;-90
2023/12/30 10:12:15;;;;;;;15.27;3.60;;;;;;;;;;4977834;28;20079;-92
2023/12/30 10:14:40;;;;;;;21.33;4.00;;;;;;;;;;4994540;28;20046;-91
2023/12/30 10:17:06;;;;;;;18.33;3.33;;;;;;;;;;4995250;28;20105;-91
2023/12/30 10:19:31;;;;;;;20.70;3.87;;;;;;;;;;4992951;28;20537;-90
2023/12/30 10:21:56;;;;;;;23.30;4.03;;;;;;;;;;4977423;28;20029;-90
2023/12/30 10:24:21;;;;;;;22.03;3.83;;;;;;;;;;4994595;28;20101;-90
2023/12/30 10:26:47;;;;;;;22.30;3.87;;;;;;;;;;4994322;28;20026;-92
2023/12/30 10:29:13;;;;;;;20.23;3.93;;;;;;;;;;4994816;28;20061;-91
2023/12/30 10:31:39;;;;;;;20.83;3.80;;;;;;;;;;5007052;28;20022;-91
2023/12/30 10:34:05;;;;;;;18.93;3.23;;;;;;;;;;4996609;28;20124;-91
2023/12/30 10:36:30;;;;;;;21.63;3.72;;;;;;;;;;4995429;28;20029;-91
2023/12/30 10:38:55;;;;;;;16.97;3.30;;;;;;;;;;4977819;28;20014;-92
2023/12/30 10:41:20;;;;;;;21.57;3.70;;;;;;;;;;4994676;28;20030;-92
2023/12/30 10:43:46;;;;;;;19.73;3.87;;;;;;;;;;4996299;28;20026;-91
2023/12/30 10:46:12;;;;;;;22.00;3.70;;;;;;;;;;4997797;28;20097;-92
2023/12/30 10:48:41;;;;;;;16.45;3.85;;;;;;;;;;4979674;28;20504;-92
2023/12/30 10:51:09;;;;;;;13.48;3.35;;;;;;;;;;4996664;28;20018;-91
2023/12/30 10:53:39;;;;;;;18.50;3.22;;;;;;;;;;4979829;28;20023;-93
2023/12/30 10:56:06;;;;;;;24.60;4.30;;;;;;;;;;4998121;28;20015;-91
2023/12/30 10:58:38;;;;;;;13.70;3.50;;;;;;;;;;4999191;28;20273;-92
2023/12/30 11:01:04;;;;;;;21.65;3.90;;;;;;;;;;5012492;28;20018;-90
2023/12/30 11:03:33;;;;;;;24.90;4.22;;;;;;;;;;4984387;28;20022;-91
2023/12/30 11:06:08;;;;;;;26.15;4.63;;;;;;;;;;4997223;28;20243;-92
2023/12/30 11:08:33;;;;;;;22.00;4.28;;;;;;;;;;4977587;28;20027;-92
2023/12/30 11:11:01;;;;;;;21.37;3.20;;;;;;;;;;4980243;28;20034;-91
2023/12/30 11:13:26;;;;;;;23.48;4.57;;;;;;;;;;5013060;28;20453;-91
2023/12/30 11:15:51;;;;;;;17.20;3.30;;;;;;;;;;4999147;28;20048;-91
2023/12/30 11:18:36;;;;;;;21.27;3.23;;;;;;;;;;5017611;28;20044;-93
2023/12/30 11:21:01;;;;;;;21.38;4.07;;;;;;;;;;5021125;28;20041;-94
2023/12/30 11:23:27;;;;;;;24.37;4.13;;;;;;;;;;4999486;28;20390;-93
2023/12/30 11:25:52;;;;;;;16.77;3.60;;;;;;;;;;5000434;28;20100;-93
2023/12/30 11:28:17;;;;;;;28.70;4.80;;;;;;;;;;4996008;28;20014;-93
2023/12/30 11:30:44;;;;;;;19.27;3.90;;;;;;;;;;4995173;28;20025;-91
2023/12/30 11:33:09;;;;;;;16.40;3.10;;;;;;;;;;4995424;28;20520;-92
2023/12/30 11:35:35;;;;;;;18.60;3.90;;;;;;;;;;4997483;28;20033;-92
2023/12/30 11:38:01;;;;;;;22.33;4.17;;;;;;;;;;4996566;28;20018;-92
2023/12/30 11:40:28;;;;;;;20.83;4.00;;;;;;;;;;4976851;28;20479;-92
2023/12/30 11:42:53;;;;;;;19.00;3.58;;;;;;;;;;4991786;28;20065;-92
2023/12/30 11:45:18;;;;;;;11.47;3.60;;;;;;;;;;4975866;28;20423;-91
2023/12/30 11:47:46;;;;;;;17.87;4.43;;;;;;;;;;4992854;28;20019;-92
2023/12/30 11:50:12;;;;;;;18.80;3.90;;;;;;;;;;4992320;28;20470;-93
2023/12/30 11:52:44;;;;;;;18.67;3.43;;;;;;;;;;4993135;28;20029;-91
2023/12/30 11:55:09;;;;;;;21.10;3.40;;;;;;;;;;4992744;28;20034;-92
2023/12/30 11:57:36;;;;;;;18.00;3.67;;;;;;;;;;4992898;28;20427;-91
2023/12/30 12:00:03;;;;;;;18.90;2.70;;;;;;;;;;4976632;28;20053;-91
2023/12/30 12:02:28;;;;;;;23.40;3.13;;;;;;;;;;4992270;28;20014;-94
2023/12/30 12:04:54;;;;;;;18.40;3.33;;;;;;;;;;4996629;28;20034;-95
2023/12/30 12:07:19;;;;;;;13.10;2.10;;;;;;;;;;4984233;28;20078;-94
2023/12/30 12:09:45;;;;;;;13.43;2.43;;;;;;;;;;4991552;28;20029;-95
2023/12/30 12:12:20;;;;;;;11.50;2.20;;;;;;;;;;5000808;28;20289;-94
2023/12/30 12:14:49;;;;;;;16.03;3.40;;;;;;;;;;4993706;28;20076;-95
2023/12/30 12:17:20;;;;;;;13.93;2.03;;;;;;;;;;5001880;28;20266;-94
2023/12/30 12:19:46;;;;;;;23.08;3.03;;;;;;;;;;5016433;28;20006;-94
2023/12/30 12:22:12;;;;;;;14.45;2.33;;;;;;;;;;5016237;28;20016;-94
2023/12/30 12:24:38;;;;;;;12.80;2.53;;;;;;;;;;5016003;28;20082;-93
2023/12/30 12:27:03;;;;;;;10.32;2.03;;;;;;;;;;4999822;28;20018;-94
2023/12/30 12:29:29;;;;;;;12.23;2.00;;;;;;;;;;5016228;28;20037;-94
2023/12/30 12:31:55;;;;;;;14.57;2.10;;;;;;;;;;5015837;28;20039;-94
2023/12/30 12:34:22;;;;;;;12.63;2.25;;;;;;;;;;5017037;28;20007;-93
2023/12/30 12:36:47;;;;;;;13.57;2.22;;;;;;;;;;5008190;28;20342;-94
2023/12/30 12:39:13;;;;;;;9.95;2.25;;;;;;;;;;5013438;28;20033;-96
2023/12/30 12:41:39;;;;;;;11.50;1.90;;;;;;;;;;5013899;28;20025;-95
2023/12/30 12:44:04;;;;;;;11.97;2.20;;;;;;;;;;5015727;28;20030;-94
2023/12/30 12:46:30;;;;;;;12.00;1.93;;;;;;;;;;5014360;28;20082;-95
2023/12/30 12:48:55;;;;;;;13.30;2.17;;;;;;;;;;5015143;28;20086;-94
2023/12/30 12:51:21;;;;;;;11.17;1.70;;;;;;;;;;5013133;28;20074;-93
2023/12/30 12:53:46;;;;;;;9.55;1.75;;;;;;;;;;5008696;28;20014;-94
2023/12/30 12:56:12;;;;;;;17.73;2.33;;;;;;;;;;5004912;28;20031;-94
2023/12/30 12:58:37;;;;;;;13.70;1.90;;;;;;;;;;5008812;28;20010;-94
2023/12/30 13:01:04;;;;;;;9.60;1.80;;;;;;;;;;5013264;28;20006;-94
2023/12/30 13:03:30;;;;;;;16.55;1.73;;;;;;;;;;5004136;28;20050;-94
2023/12/30 13:05:58;;;;;;;14.10;2.10;;;;;;;;;;4980800;28;20014;-94
2023/12/30 13:08:23;;;;;;;10.73;1.80;;;;;;;;;;4978387;28;20454;-95
2023/12/30 13:10:49;;;;;;;9.13;1.50;;;;;;;;;;4993620;28;20024;-94
2023/12/30 13:13:15;;;;;;;18.17;2.20;;;;;;;;;;4991932;28;20065;-94
2023/12/30 13:15:40;;;;;;;11.00;1.93;;;;;;;;;;4992392;28;20421;-95
2023/12/30 13:18:09;;;;;;;13.23;2.10;;;;;;;;;;4993088;28;20045;-95
2023/12/30 13:20:34;;;;;;;15.57;1.95;;;;;;;;;;4974430;28;20050;-94
2023/12/30 13:23:03;;;;;;;16.47;1.87;;;;;;;;;;4976777;28;20026;-94
2023/12/30 13:25:34;;;;;;;11.10;1.40;;;;;;;;;;4991620;28;20030;-93
2023/12/30 13:27:59;;;;;;;12.23;1.85;;;;;;;;;;4972359;28;20053;-94
2023/12/30 13:30:24;;;;;;;17.07;1.80;;;;;;;;;;4984161;28;20026;-94
2023/12/30 13:32:56;;;;;;;10.90;1.70;;;;;;;;;;4993698;28;20031;-94
2023/12/30 13:35:21;;;;;;;10.60;1.83;;;;;;;;;;4992921;28;20569;-95
2023/12/30 13:37:47;;;;;;;13.20;2.50;;;;;;;;;;4992057;28;20120;-95
2023/12/30 13:40:15;;;;;;;11.88;2.05;;;;;;;;;;4976891;28;20038;-95
2023/12/30 13:42:40;;;;;;;13.88;2.00;;;;;;;;;;4997998;28;20026;-94
2023/12/30 13:45:09;;;;;;;10.53;1.87;;;;;;;;;;5009098;28;20076;-94
2023/12/30 13:52:43;;;;;;;10.07;2.47;;;;;;;;;;4976415;28;20038;-93
2023/12/30 13:55:14;;;;;;;11.40;1.60;;;;;;;;;;4982868;28;20483;-93
2023/12/30 13:57:41;;;;;;;10.82;2.53;;;;;;;;;;4973489;28;20014;-93
2023/12/30 14:00:07;;;;;;;15.82;2.50;;;;;;;;;;4997219;28;20028;-94
2023/12/30 14:02:38;;;;;;;7.43;1.90;;;;;;;;;;4987390;28;20332;-94
2023/12/30 14:05:05;;;;;;;12.63;1.95;;;;;;;;;;4995522;28;20505;-92
2023/12/30 14:07:30;;;;;;;8.15;1.73;;;;;;;;;;4997404;28;20797;-94
2023/12/30 14:10:01;;;;;;;8.50;1.50;;;;;;;;;;4996357;28;20025;-94
2023/12/30 14:12:28;;;;;;;6.88;1.38;;;;;;;;;;4994254;28;20102;-93
2023/12/30 14:14:54;;;;;;;8.63;1.40;;;;;;;;;;4994059;28;20023;-93
2023/12/30 14:17:28;;;;;;;8.90;1.27;;;;;;;;;;4993743;28;20015;-93
2023/12/30 14:19:53;;;;;;;6.47;1.45;;;;;;;;;;4994811;28;20046;-92
2023/12/30 14:22:18;;;;;;;9.60;1.93;;;;;;;;;;4977370;28;20037;-93
2023/12/30 14:24:45;;;;;;;11.90;1.50;;;;;;;;;;4995053;28;20030;-93
2023/12/30 14:27:12;;;;;;;7.10;1.80;;;;;;;;;;4980958;28;20110;-93
2023/12/30 14:29:37;;;;;;;10.45;3.30;;;;;;;;;;4976654;28;20030;-94